createdAt,value
2023-03-16T00:01:05.384Z,93.60
2023-03-16T00:03:51.205Z,94.00
2023-03-16T00:06:36.796Z,93.80
2023-03-16T00:09:22.372Z,93.80
2023-03-16T00:12:15.796Z,93.70
2023-03-16T00:15:02.122Z,93.80
2023-03-16T00:17:48.998Z,94.00
2023-03-16T00:20:34.452Z,93.80
2023-03-16T00:23:20.083Z,93.90
2023-03-16T00:26:07.480Z,94.30
2023-03-16T00:28:54.311Z,94.30
2023-03-16T00:31:40.368Z,94.60
2023-03-16T00:34:29.960Z,94.40
2023-03-16T00:37:16.695Z,94.50
2023-03-16T00:40:02.325Z,94.50
2023-03-16T00:42:47.741Z,94.60
2023-03-16T00:45:33.298Z,95.10
2023-03-16T00:48:18.703Z,95.50
2023-03-16T00:51:06.975Z,95.60
2023-03-16T00:53:52.374Z,95.80
2023-03-16T00:56:38.601Z,95.70
2023-03-16T00:59:26.180Z,96.10
2023-03-16T01:02:12.678Z,96.40
2023-03-16T01:04:58.352Z,96.70
2023-03-16T01:07:46.202Z,96.60
2023-03-16T01:10:31.675Z,96.70
2023-03-16T01:13:17.534Z,96.40
2023-03-16T01:16:04.159Z,96.40
2023-03-16T01:18:49.952Z,96.20
2023-03-16T01:21:38.190Z,96.70
2023-03-16T01:24:25.106Z,97.30
2023-03-16T01:27:11.100Z,97.40
2023-03-16T01:29:57.037Z,97.90
2023-03-16T01:32:44.708Z,97.40
2023-03-16T01:35:32.542Z,97.20
2023-03-16T01:38:18.304Z,97.60
2023-03-16T01:41:06.396Z,97.60
2023-03-16T01:43:53.663Z,97.60
2023-03-16T01:46:39.584Z,97.80
2023-03-16T01:49:28.134Z,97.90
2023-03-16T01:52:16.704Z,98.10
2023-03-16T01:55:06.237Z,98.10
2023-03-16T01:57:53.508Z,98.30
2023-03-16T02:00:41.768Z,98.90
2023-03-16T02:03:35.642Z,99.20
2023-03-16T02:06:32.329Z,99.40
2023-03-16T02:09:21.669Z,99.40
2023-03-16T02:12:09.758Z,99.40
2023-03-16T02:15:01.104Z,99.90
2023-03-16T02:17:48.733Z,99.70
2023-03-16T02:20:42.789Z,99.80
2023-03-16T02:23:28.910Z,99.60
2023-03-16T02:26:22.992Z,99.90
2023-03-16T02:29:18.980Z,99.90
2023-03-16T02:32:08.771Z,99.90
2023-03-16T02:35:00.384Z,99.90
2023-03-16T02:37:46.157Z,99.90
2023-03-16T02:40:34.400Z,99.90
2023-03-16T02:43:33.272Z,99.90
2023-03-16T02:46:39.971Z,99.90
2023-03-16T02:49:37.427Z,99.90
2023-03-16T02:52:23.939Z,99.90
2023-03-16T02:55:11.001Z,99.90
2023-03-16T02:57:56.386Z,99.90
2023-03-16T03:00:42.977Z,99.90
2023-03-16T03:03:29.191Z,99.90
2023-03-16T03:06:16.610Z,99.90
2023-03-16T03:09:02.796Z,99.90
2023-03-16T03:11:50.598Z,99.90
2023-03-16T03:14:39.416Z,99.90
2023-03-16T03:17:30.050Z,99.90
2023-03-16T03:20:17.788Z,99.90
2023-03-16T03:23:05.518Z,99.90
2023-03-16T03:25:51.227Z,99.90
2023-03-16T03:28:37.484Z,99.90
2023-03-16T03:31:23.515Z,99.90
2023-03-16T03:34:10.148Z,99.90
2023-03-16T03:36:55.894Z,99.90
2023-03-16T03:39:43.326Z,99.90
2023-03-16T03:42:31.110Z,99.90
2023-03-16T03:45:18.237Z,99.90
2023-03-16T03:48:04.754Z,99.90
2023-03-16T03:50:51.088Z,99.90
2023-03-16T03:53:54.147Z,99.90
2023-03-16T03:57:08.019Z,99.90
2023-03-16T03:59:53.633Z,99.90
2023-03-16T04:02:58.486Z,99.90
2023-03-16T04:05:51.963Z,99.90
2023-03-16T04:08:37.926Z,99.90
2023-03-16T04:11:27.640Z,99.90
2023-03-16T04:14:14.702Z,99.90
2023-03-16T04:17:00.629Z,99.90
2023-03-16T04:19:47.662Z,99.90
2023-03-16T04:22:35.474Z,99.90
2023-03-16T04:25:21.408Z,99.90
2023-03-16T04:28:08.385Z,99.90
2023-03-16T04:31:01.688Z,99.90
2023-03-16T04:33:54.720Z,99.90
2023-03-16T04:36:42.168Z,99.90
2023-03-16T04:39:28.816Z,99.90
2023-03-16T04:42:14.877Z,99.90
2023-03-16T04:45:00.940Z,99.90
2023-03-16T04:47:49.665Z,99.90
2023-03-16T04:50:36.036Z,99.90
2023-03-16T04:53:21.841Z,99.90
2023-03-16T04:56:19.654Z,99.90
2023-03-16T04:59:11.076Z,99.90
2023-03-16T05:02:20.121Z,99.90
2023-03-16T05:05:09.197Z,99.90
2023-03-16T05:07:59.759Z,99.90
2023-03-16T05:10:48.555Z,99.90
2023-03-16T05:13:35.361Z,99.90
2023-03-16T05:16:21.419Z,99.90
2023-03-16T05:19:07.330Z,99.90
2023-03-16T05:21:56.909Z,99.90
2023-03-16T05:24:43.107Z,99.90
2023-03-16T05:27:30.061Z,99.90
2023-03-16T05:30:17.429Z,99.90
2023-03-16T05:33:03.616Z,99.90
2023-03-16T05:35:51.082Z,99.90
2023-03-16T05:38:39.322Z,99.90
2023-03-16T05:41:28.314Z,99.90
2023-03-16T05:44:21.525Z,99.90
2023-03-16T05:47:45.373Z,99.90
2023-03-16T05:50:31.603Z,99.90
2023-03-16T05:53:17.434Z,99.90
2023-03-16T05:56:05.911Z,99.90
2023-03-16T05:58:56.819Z,99.90
2023-03-16T06:01:43.644Z,99.90
2023-03-16T06:04:30.459Z,99.90
2023-03-16T06:07:17.108Z,99.90
2023-03-16T06:10:07.612Z,99.90
2023-03-16T06:12:55.249Z,99.90
2023-03-16T06:15:41.681Z,99.90
2023-03-16T06:18:27.388Z,99.90
2023-03-16T06:21:13.277Z,99.90
2023-03-16T06:24:00.487Z,99.90
2023-03-16T06:26:46.175Z,99.90
2023-03-16T06:29:34.220Z,99.90
2023-03-16T06:32:22.012Z,99.90
2023-03-16T06:35:09.482Z,99.90
2023-03-16T06:37:58.764Z,99.90
2023-03-16T06:41:00.139Z,99.90
2023-03-16T06:43:45.852Z,99.90
2023-03-16T06:46:33.560Z,99.90
2023-03-16T06:49:21.896Z,99.90
2023-03-16T06:52:10.488Z,99.90
2023-03-16T06:54:58.500Z,99.90
2023-03-16T06:57:46.607Z,99.90
2023-03-16T07:00:34.128Z,99.90
2023-03-16T07:05:01.360Z,99.90
2023-03-16T07:07:47.583Z,99.90
2023-03-16T07:10:34.633Z,99.90
2023-03-16T07:13:20.679Z,99.90
2023-03-16T07:16:06.756Z,99.90
2023-03-16T07:18:52.596Z,99.90
2023-03-16T07:21:41.905Z,99.90
2023-03-16T07:24:33.078Z,99.90
2023-03-16T07:27:19.891Z,99.90
2023-03-16T07:30:07.262Z,99.90
2023-03-16T07:32:57.494Z,99.90
2023-03-16T07:35:45.050Z,99.90
2023-03-16T07:38:32.775Z,99.90
2023-03-16T07:41:18.316Z,99.90
2023-03-16T07:44:05.647Z,99.90
2023-03-16T07:46:51.693Z,99.90
2023-03-16T07:49:38.643Z,99.90
2023-03-16T07:52:24.459Z,99.90
2023-03-16T07:55:13.161Z,99.90
2023-03-16T07:57:59.731Z,99.90
2023-03-16T08:00:51.268Z,99.90
2023-03-16T08:03:38.680Z,99.90
2023-03-16T08:06:25.984Z,99.90
2023-03-16T08:09:13.510Z,99.90
2023-03-16T08:12:04.549Z,99.90
2023-03-16T08:14:52.413Z,99.90
2023-03-16T08:17:44.392Z,99.90
2023-03-16T08:20:36.480Z,99.90
2023-03-16T08:23:24.167Z,99.90
2023-03-16T08:26:10.982Z,99.90
2023-03-16T08:29:03.138Z,99.90
2023-03-16T08:31:56.612Z,99.90
2023-03-16T08:34:48.385Z,99.90
2023-03-16T08:37:34.752Z,99.90
2023-03-16T08:40:22.637Z,99.90
2023-03-16T08:43:09.183Z,99.90
2023-03-16T08:45:56.569Z,99.90
2023-03-16T08:48:46.115Z,99.90
2023-03-16T08:51:33.810Z,99.90
2023-03-16T08:54:19.666Z,99.90
2023-03-16T08:57:05.657Z,99.90
2023-03-16T08:59:51.532Z,99.90
2023-03-16T09:02:39.220Z,99.90
2023-03-16T09:05:25.717Z,99.90
2023-03-16T09:08:12.746Z,99.90
2023-03-16T09:11:02.317Z,99.90
2023-03-16T09:13:48.355Z,99.90
2023-03-16T09:16:35.121Z,99.90
2023-03-16T09:19:22.947Z,99.90
2023-03-16T09:22:08.514Z,99.90
2023-03-16T09:24:54.865Z,99.90
2023-03-16T09:27:40.874Z,99.90
2023-03-16T09:30:26.863Z,99.90
2023-03-16T09:33:13.348Z,99.90
2023-03-16T09:36:01.006Z,99.90
2023-03-16T09:38:46.614Z,99.90
2023-03-16T09:41:42.833Z,99.90
2023-03-16T09:44:38.601Z,99.90
2023-03-16T09:47:30.336Z,99.90
2023-03-16T09:50:24.438Z,99.90
2023-03-16T09:53:21.101Z,99.90
2023-03-16T09:56:11.257Z,99.90
2023-03-16T09:58:59.005Z,99.90
2023-03-16T10:01:57.123Z,99.90
2023-03-16T10:04:53.186Z,99.90
2023-03-16T10:07:48.144Z,99.90
2023-03-16T10:10:55.401Z,99.90
2023-03-16T10:13:47.688Z,99.90
2023-03-16T10:16:38.688Z,99.90
2023-03-16T10:19:34.041Z,99.90
2023-03-16T10:22:22.245Z,99.70
2023-03-16T10:25:15.534Z,98.80
2023-03-16T10:28:02.622Z,98.50
2023-03-16T10:30:50.404Z,99.40
2023-03-16T10:33:39.630Z,98.00
2023-03-16T10:36:30.941Z,97.90
2023-03-16T10:39:17.599Z,98.10
2023-03-16T10:42:03.133Z,97.50
2023-03-16T10:44:56.897Z,96.20
2023-03-16T10:47:42.803Z,95.40
2023-03-16T10:50:28.722Z,95.20
2023-03-16T10:53:19.628Z,94.50
2023-03-16T10:56:13.078Z,94.60
2023-03-16T10:59:00.287Z,95.10
2023-03-16T11:01:50.073Z,95.70
2023-03-16T11:04:35.935Z,95.10
2023-03-16T11:07:29.540Z,95.30
2023-03-16T11:10:27.732Z,94.30
2023-03-16T11:13:17.636Z,93.40
2023-03-16T11:16:16.839Z,93.60
2023-03-16T11:19:14.923Z,93.40
2023-03-16T11:22:03.956Z,94.10
2023-03-16T11:24:53.850Z,93.80
2023-03-16T11:27:46.054Z,94.00
2023-03-16T11:30:36.957Z,94.20
2023-03-16T11:33:23.059Z,94.40
2023-03-16T11:36:27.975Z,93.70
2023-03-16T11:39:16.137Z,93.90
2023-03-16T11:42:13.998Z,94.80
2023-03-16T11:45:04.354Z,95.00
2023-03-16T11:48:03.512Z,94.80
2023-03-16T11:50:54.266Z,93.60
2023-03-16T11:53:46.863Z,94.60
2023-03-16T11:56:33.866Z,94.10
2023-03-16T11:59:33.984Z,93.60
2023-03-16T12:02:29.296Z,92.80
2023-03-16T12:05:33.127Z,92.50
2023-03-16T12:08:25.626Z,93.10
2023-03-16T12:11:14.791Z,93.20
2023-03-16T12:14:05.763Z,91.40
2023-03-16T12:16:54.224Z,92.40
2023-03-16T12:19:41.765Z,92.60
2023-03-16T12:22:29.512Z,91.80
2023-03-16T12:25:19.916Z,91.10
2023-03-16T12:28:16.742Z,90.70
2023-03-16T12:31:10.553Z,89.80
2023-03-16T12:34:08.369Z,90.50
2023-03-16T12:37:10.221Z,89.20
2023-03-16T12:40:09.179Z,89.20
2023-03-16T12:43:11.178Z,83.40
2023-03-16T12:46:04.476Z,82.80
2023-03-16T12:48:55.599Z,82.40
2023-03-16T12:51:43.265Z,76.80
2023-03-16T12:54:29.632Z,77.40
2023-03-16T12:57:17.183Z,80.60
2023-03-16T13:00:09.509Z,80.20
2023-03-16T13:02:56.277Z,80.30
2023-03-16T13:05:46.459Z,80.50
2023-03-16T13:08:42.647Z,82.70
2023-03-16T13:11:28.745Z,81.20
2023-03-16T13:14:17.822Z,80.60
2023-03-16T13:17:27.825Z,82.00
2023-03-16T13:20:31.094Z,84.60
2023-03-16T13:23:23.858Z,88.50
2023-03-16T13:26:16.421Z,87.00
2023-03-16T13:29:16.601Z,88.40
2023-03-16T13:32:07.448Z,87.60
2023-03-16T13:34:58.848Z,86.20
2023-03-16T13:37:45.795Z,86.50
2023-03-16T13:40:32.120Z,87.30
2023-03-16T13:43:21.705Z,86.80
2023-03-16T13:46:15.057Z,87.70
2023-03-16T13:49:01.213Z,88.10
2023-03-16T13:51:49.494Z,88.60
2023-03-16T13:54:37.365Z,83.50
2023-03-16T13:57:25.748Z,86.30
2023-03-16T14:00:18.132Z,86.40
2023-03-16T14:03:16.208Z,85.30
2023-03-16T14:06:02.372Z,84.00
2023-03-16T14:08:53.492Z,86.40
2023-03-16T14:11:39.634Z,84.80
2023-03-16T14:14:28.992Z,87.40
2023-03-16T14:17:17.663Z,84.30
2023-03-16T14:20:04.256Z,80.70
2023-03-16T14:22:53.553Z,77.80
2023-03-16T14:25:40.748Z,77.90
2023-03-16T14:28:32.398Z,80.60
2023-03-16T14:31:20.916Z,81.60
2023-03-16T14:34:19.973Z,82.60
2023-03-16T14:37:07.696Z,81.50
2023-03-16T14:40:01.654Z,82.00
2023-03-16T14:42:49.002Z,84.20
2023-03-16T14:45:37.482Z,82.60
2023-03-16T14:48:24.012Z,82.20
2023-03-16T14:51:13.294Z,80.80
2023-03-16T14:53:58.655Z,81.10
2023-03-16T14:56:48.327Z,80.40
2023-03-16T14:59:35.185Z,80.10
2023-03-16T15:02:23.047Z,80.70
2023-03-16T15:05:09.684Z,80.60
2023-03-16T15:07:55.569Z,79.00
2023-03-16T15:10:41.379Z,77.30
2023-03-16T15:13:42.171Z,79.80
2023-03-16T15:16:29.853Z,83.00
2023-03-16T15:19:15.344Z,80.80
2023-03-16T15:22:01.678Z,79.80
2023-03-16T15:24:47.699Z,78.60
2023-03-16T15:27:34.870Z,77.20
2023-03-16T15:30:22.034Z,77.80
2023-03-16T15:33:09.945Z,80.30
2023-03-16T15:35:57.115Z,81.90
2023-03-16T15:38:44.591Z,81.00
2023-03-16T15:41:41.399Z,80.20
2023-03-16T15:44:30.565Z,82.20
2023-03-16T15:47:16.612Z,81.90
2023-03-16T15:50:04.389Z,81.00
2023-03-16T15:52:52.850Z,81.60
2023-03-16T15:55:40.072Z,80.20
2023-03-16T15:58:27.673Z,81.40
2023-03-16T16:01:20.332Z,81.50
2023-03-16T16:04:12.444Z,81.90
2023-03-16T16:07:00.527Z,81.20
2023-03-16T16:09:46.778Z,80.00
2023-03-16T16:12:33.512Z,80.20
2023-03-16T16:15:21.631Z,81.70
2023-03-16T16:18:21.683Z,81.70
2023-03-16T16:21:09.086Z,82.90
2023-03-16T16:23:56.781Z,83.10
2023-03-16T16:26:52.837Z,83.50
2023-03-16T16:29:40.092Z,83.40
2023-03-16T16:32:26.038Z,82.30
2023-03-16T16:35:13.171Z,82.40
2023-03-16T16:37:58.865Z,82.90
2023-03-16T16:40:46.310Z,81.80
2023-03-16T16:43:33.750Z,82.70
2023-03-16T16:46:21.607Z,83.10
2023-03-16T16:49:12.852Z,82.90
2023-03-16T16:51:58.834Z,83.30
2023-03-16T16:54:44.560Z,83.40
2023-03-16T16:57:34.048Z,82.80
2023-03-16T17:00:23.124Z,82.50
2023-03-16T17:03:21.468Z,82.80
2023-03-16T17:06:15.479Z,83.70
2023-03-16T17:09:01.483Z,82.90
2023-03-16T17:11:47.740Z,83.10
2023-03-16T17:14:36.185Z,83.30
2023-03-16T17:17:22.386Z,83.60
2023-03-16T17:20:15.448Z,84.50
2023-03-16T17:23:01.549Z,84.80
2023-03-16T17:25:59.647Z,84.90
2023-03-16T17:28:50.429Z,85.50
2023-03-16T17:31:40.138Z,86.40
2023-03-16T17:34:27.814Z,86.90
2023-03-16T17:37:15.224Z,87.20
2023-03-16T17:40:00.893Z,87.70
2023-03-16T17:42:47.771Z,88.70
2023-03-16T17:45:33.462Z,89.70
2023-03-16T17:48:22.245Z,90.00
2023-03-16T17:51:13.007Z,90.20
2023-03-16T17:53:59.117Z,90.90
2023-03-16T17:56:47.338Z,91.20
2023-03-16T17:59:33.310Z,91.40
2023-03-16T18:02:35.772Z,92.10
2023-03-16T18:05:25.599Z,93.10
2023-03-16T18:08:16.123Z,93.30
2023-03-16T18:11:05.143Z,93.70
2023-03-16T18:13:52.038Z,93.90
2023-03-16T18:16:38.329Z,93.90
2023-03-16T18:19:31.332Z,94.50
2023-03-16T18:22:22.321Z,95.00
2023-03-16T18:25:32.429Z,95.10
2023-03-16T18:28:19.655Z,95.40
2023-03-16T18:31:07.752Z,95.70
2023-03-16T18:33:56.632Z,95.20
2023-03-16T18:36:45.380Z,95.30
2023-03-16T18:39:32.879Z,95.30
2023-03-16T18:42:19.688Z,95.30
2023-03-16T18:45:09.756Z,95.50
2023-03-16T18:47:56.496Z,95.40
2023-03-16T18:50:43.672Z,95.70
2023-03-16T18:53:29.771Z,95.90
2023-03-16T18:56:22.789Z,95.80
2023-03-16T18:59:08.728Z,96.00
2023-03-16T19:01:54.530Z,96.20
2023-03-16T19:04:40.601Z,96.30
2023-03-16T19:07:32.810Z,96.60
2023-03-16T19:10:23.690Z,96.90
2023-03-16T19:13:15.176Z,97.20
2023-03-16T19:16:03.273Z,97.00
2023-03-16T19:18:49.704Z,97.30
2023-03-16T19:21:35.924Z,97.40
2023-03-16T19:24:25.617Z,97.50
2023-03-16T19:27:19.901Z,97.80
2023-03-16T19:30:21.374Z,98.00
2023-03-16T19:33:17.617Z,98.50
2023-03-16T19:36:04.735Z,98.30
2023-03-16T19:38:50.663Z,98.50
2023-03-16T19:41:38.326Z,98.10
2023-03-16T19:44:26.146Z,98.10
2023-03-16T19:47:24.681Z,98.30
2023-03-16T19:50:15.817Z,98.30
2023-03-16T19:53:02.303Z,98.20
2023-03-16T19:55:49.453Z,98.60
2023-03-16T19:58:38.660Z,98.70
2023-03-16T20:01:32.273Z,98.40
2023-03-16T20:04:23.149Z,98.20
2023-03-16T20:07:15.173Z,98.40
2023-03-16T20:10:01.066Z,98.40
2023-03-16T20:12:48.112Z,98.40
2023-03-16T20:15:35.389Z,98.50
2023-03-16T20:18:21.558Z,98.30
2023-03-16T20:21:13.518Z,98.00
2023-03-16T20:23:58.952Z,97.60
2023-03-16T20:26:47.084Z,97.70
2023-03-16T20:29:34.126Z,98.00
2023-03-16T20:32:22.213Z,97.80
2023-03-16T20:35:15.268Z,98.00
2023-03-16T20:38:02.855Z,98.30
2023-03-16T20:40:52.300Z,98.30
2023-03-16T20:43:38.697Z,98.10
2023-03-16T20:46:26.661Z,98.10
2023-03-16T20:49:29.929Z,98.60
2023-03-16T20:52:17.471Z,98.90
2023-03-16T20:55:05.439Z,98.60
2023-03-16T20:57:52.559Z,98.20
2023-03-16T21:00:39.262Z,98.50
2023-03-16T21:03:27.534Z,98.40
2023-03-16T21:06:22.362Z,97.90
2023-03-16T21:09:09.772Z,98.00
2023-03-16T21:11:57.202Z,97.50
2023-03-16T21:14:42.824Z,97.40
2023-03-16T21:17:31.313Z,97.50
2023-03-16T21:20:19.425Z,97.80
2023-03-16T21:23:11.605Z,97.50
2023-03-16T21:25:59.470Z,97.50
2023-03-16T21:28:52.716Z,97.80
2023-03-16T21:31:38.262Z,98.00
2023-03-16T21:34:26.921Z,98.20
2023-03-16T21:37:14.245Z,98.30
2023-03-16T21:40:01.249Z,98.10
2023-03-16T21:42:47.707Z,98.60
2023-03-16T21:45:36.595Z,98.90
2023-03-16T21:48:25.216Z,98.60
2023-03-16T21:51:13.521Z,99.00
2023-03-16T21:53:59.565Z,99.50
2023-03-16T21:56:46.263Z,99.60
2023-03-16T21:59:32.130Z,99.80
2023-03-16T22:02:23.691Z,99.90
2023-03-16T22:05:31.440Z,99.90
2023-03-16T22:08:19.775Z,99.90
2023-03-16T22:11:15.524Z,99.90
2023-03-16T22:14:01.644Z,99.90
2023-03-16T22:16:47.993Z,99.90
2023-03-16T22:19:35.211Z,99.90
2023-03-16T22:22:21.247Z,99.90
2023-03-16T22:25:14.358Z,99.90
2023-03-16T22:28:00.237Z,99.90
2023-03-16T22:30:46.219Z,99.90
2023-03-16T22:33:35.679Z,99.90
2023-03-16T22:36:23.436Z,99.90
2023-03-16T22:39:12.953Z,99.90
2023-03-16T22:41:58.315Z,99.90
2023-03-16T22:44:43.843Z,99.90
2023-03-16T22:47:33.821Z,99.90
2023-03-16T22:50:24.290Z,99.90
2023-03-16T22:53:18.928Z,99.90
2023-03-16T22:56:05.906Z,99.90
2023-03-16T22:58:54.828Z,99.90
2023-03-16T23:01:43.519Z,99.90
2023-03-16T23:04:32.256Z,99.90
2023-03-16T23:07:18.256Z,99.90
2023-03-16T23:10:08.211Z,99.90
2023-03-16T23:12:54.436Z,99.50
2023-03-16T23:15:40.044Z,99.90
2023-03-16T23:18:26.834Z,99.90
2023-03-16T23:21:14.645Z,99.80
2023-03-16T23:24:04.234Z,99.40
2023-03-16T23:26:52.997Z,99.30
2023-03-16T23:29:38.913Z,98.70
2023-03-16T23:32:24.980Z,98.60
2023-03-16T23:35:17.914Z,98.50
2023-03-16T23:38:03.983Z,98.30
2023-03-16T23:40:49.867Z,98.60
2023-03-16T23:43:37.529Z,98.60
2023-03-16T23:46:25.926Z,98.70
2023-03-16T23:49:19.093Z,98.50
2023-03-16T23:52:05.448Z,98.20
2023-03-16T23:54:51.162Z,98.00
2023-03-16T23:57:37.222Z,98.10
